.
WxDataArchive / Data Records for 2010-01-06
2010-01-05 January 2010 2010-01-07

Data Records for Wednesday, 06 January 2010

Time	Temp	Chill	HIndex	Humid	Dewpt	 Wind 	HiWind	WindDir	Rain 	Barom 
-----	----	-----	------	-----	-----	------	------	-------	-----	----- 
00:00	20.6	20.6	20.6	85	16.8	2	4	270	0.00	30.140 
00:05	20.8	20.8	20.8	85	17.0	2	5	248	0.00	30.140 
00:10	20.8	20.8	20.8	85	17.0	2	6	270	0.00	30.140 
00:15	20.8	20.8	20.8	85	17.0	2	3	270	0.00	30.139 
00:20	20.8	20.8	20.8	85	17.0	2	5	270	0.00	30.139 
00:25	20.8	20.8	20.8	85	17.0	3	6	270	0.00	30.139 
00:30	20.8	20.8	20.8	85	17.0	2	4	292	0.00	30.137 
00:35	20.8	20.8	20.8	85	17.0	2	5	270	0.00	30.137 
00:40	20.8	20.8	20.8	85	17.0	2	6	270	0.00	30.137 
00:45	20.8	20.8	20.8	86	17.3	2	6	270	0.00	30.136 
00:50	20.6	20.6	20.6	86	17.1	2	5	248	0.00	30.136 
00:55	20.6	20.6	20.6	86	17.1	2	4	292	0.00	30.136 
01:00	20.6	20.6	20.6	86	17.1	3	7	248	0.00	30.135 
01:05	20.6	20.6	20.6	89	17.9	2	4	248	0.00	30.135 
01:10	20.5	20.5	20.5	86	17.0	3	9	248	0.00	30.135 
01:15	20.5	20.5	20.5	86	17.0	2	6	292	0.00	30.135 
01:20	20.3	20.3	20.3	86	16.8	2	6	248	0.00	30.135 
01:25	20.3	20.3	20.3	86	16.8	3	5	270	0.00	30.135 
01:30	20.2	20.2	20.2	86	16.7	2	4	248	0.00	30.137 
01:35	20.2	20.2	20.2	86	16.7	3	6	248	0.00	30.137 
01:40	20.2	20.2	20.2	86	16.7	3	6	248	0.00	30.137 
01:45	20.2	20.2	20.2	86	16.7	2	6	248	0.00	30.137 
01:50	20.2	20.2	20.2	86	16.7	2	6	225	0.00	30.137 
01:55	20.0	20.0	20.0	86	16.5	2	10	270	0.00	30.137 
02:00	20.0	20.0	20.0	86	16.5	2	7	248	0.00	30.139 
02:05	20.0	20.0	20.0	86	16.5	2	4	248	0.00	30.139 
02:10	20.0	20.0	20.0	86	16.5	3	7	248	0.00	30.139 
02:15	19.9	19.9	19.9	86	16.4	2	4	248	0.00	30.140 
02:20	19.9	19.9	19.9	86	16.4	2	4	248	0.00	30.140 
02:25	19.7	19.7	19.7	86	16.2	2	7	248	0.00	30.140 
02:30	19.7	19.7	19.7	86	16.2	2	4	270	0.00	30.139 
02:35	19.7	19.7	19.7	86	16.2	3	7	248	0.00	30.139 
02:40	19.5	19.5	19.5	86	16.0	2	7	270	0.00	30.139 
02:45	19.5	19.5	19.5	86	16.0	2	5	270	0.00	30.150 
02:50	19.5	19.5	19.5	86	16.0	2	5	270	0.00	30.150 
02:55	19.4	19.4	19.4	86	15.9	2	4	270	0.00	30.150 
03:00	19.4	19.4	19.4	86	15.9	2	4	248	0.00	30.152 
03:05	19.4	19.4	19.4	86	15.9	2	6	270	0.00	30.152 
03:10	19.4	19.4	19.4	86	15.9	2	6	270	0.00	30.152 
03:15	19.4	19.4	19.4	86	15.9	2	5	270	0.00	30.157 
03:20	19.4	19.4	19.4	87	16.2	2	6	248	0.00	30.157 
03:25	19.4	19.4	19.4	87	16.2	2	5	270	0.00	30.157 
03:30	19.4	19.4	19.4	87	16.2	2	6	248	0.00	30.157 
03:35	19.2	19.2	19.2	87	16.0	3	9	270	0.00	30.157 
03:40	19.2	19.2	19.2	87	16.0	2	6	248	0.00	30.157 
03:45	19.1	19.1	19.1	87	15.9	2	5	248	0.00	30.163 
03:50	19.1	19.1	19.1	87	15.9	2	6	248	0.00	30.163 
03:55	18.9	18.9	18.9	87	15.7	3	10	248	0.00	30.163 
04:00	18.9	18.9	18.9	87	15.7	3	7	248	0.00	30.161 
04:05	18.9	18.9	18.9	87	15.7	2	5	248	0.00	30.161 
04:10	18.8	18.8	18.8	87	15.6	2	7	270	0.00	30.161 
04:15	18.8	18.8	18.8	87	15.6	2	5	225	0.00	30.170 
04:20	18.8	18.8	18.8	87	15.6	2	6	248	0.00	30.170 
04:25	18.8	18.8	18.8	86	15.3	2	7	225	0.00	30.170 
04:30	18.6	18.6	18.6	86	15.1	2	5	248	0.00	30.172 
04:35	18.6	18.6	18.6	86	15.1	2	3	270	0.00	30.172 
04:40	18.6	18.6	18.6	86	15.1	3	7	248	0.00	30.172 
04:45	18.6	18.6	18.6	86	15.1	2	5	248	0.00	30.171 
04:50	18.6	18.6	18.6	86	15.1	2	4	270	0.00	30.171 
04:55	18.4	18.4	18.4	86	14.9	2	8	248	0.00	30.171 
05:00	18.4	18.4	18.4	86	14.9	2	5	225	0.00	30.171 
05:05	18.4	18.4	18.4	86	14.9	2	5	270	0.00	30.171 
05:10	18.3	18.3	18.3	86	14.8	2	5	248	0.00	30.171 
05:15	18.3	18.3	18.3	86	14.8	3	5	270	0.00	30.170 
05:20	18.1	18.1	18.1	86	14.6	3	4	270	0.00	30.170 
05:25	18.1	18.1	18.1	86	14.6	1	3	248	0.00	30.170 
05:30	18.1	18.1	18.1	85	14.4	3	9	248	0.00	30.171 
05:35	18.0	18.0	18.0	85	14.3	2	4	248	0.00	30.171 
05:40	18.0	18.0	18.0	85	14.3	2	3	248	0.00	30.171 
05:45	18.0	18.0	18.0	85	14.3	2	3	248	0.00	30.173 
05:50	17.8	17.8	17.8	85	14.1	2	7	248	0.00	30.173 
05:55	17.8	17.8	17.8	85	14.1	2	5	270	0.00	30.173 
06:00	17.8	17.8	17.8	85	14.1	2	6	248	0.00	30.175 
06:05	17.8	17.8	17.8	85	14.1	2	7	248	0.00	30.175 
06:10	17.7	17.7	17.7	85	14.0	2	5	248	0.00	30.175 
06:15	17.7	17.7	17.7	85	14.0	2	4	270	0.00	30.176 
06:20	17.5	17.5	17.5	85	13.8	2	5	248	0.00	30.176 
06:25	17.5	17.5	17.5	85	13.8	3	4	248	0.00	30.176 
06:30	17.5	17.5	17.5	86	14.0	2	7	248	0.00	30.176 
06:35	17.5	17.5	17.5	86	14.0	1	3	248	0.00	30.176 
06:40	17.5	17.5	17.5	86	14.0	2	5	248	0.00	30.176 
06:45	17.5	17.5	17.5	86	14.0	2	6	248	0.00	30.182 
06:50	17.3	17.3	17.3	86	13.8	2	4	248	0.00	30.182 
06:55	17.3	17.3	17.3	86	13.8	1	3	248	0.00	30.182 
07:00	17.3	17.3	17.3	86	13.8	1	4	248	0.00	30.190 
07:05	17.2	17.2	17.2	86	13.7	2	4	270	0.00	30.190 
07:10	17.2	17.2	17.2	86	13.7	2	5	248	0.00	30.190 
07:15	17.2	17.2	17.2	86	13.7	2	5	248	0.00	30.191 
07:20	17.0	17.0	17.0	86	13.6	2	6	248	0.00	30.191 
07:25	17.0	17.0	17.0	86	13.6	2	6	248	0.00	30.191 
07:30	16.9	16.9	16.9	86	13.5	2	6	248	0.00	30.193 
07:35	16.9	16.9	16.9	86	13.5	2	5	248	0.00	30.193 
07:40	16.9	16.9	16.9	87	13.7	1	3	270	0.00	30.193 
07:45	16.9	16.9	16.9	87	13.7	1	5	248	0.00	30.199 
07:50	16.9	16.9	16.9	87	13.7	2	6	248	0.00	30.199 
07:55	17.0	17.0	17.0	87	13.8	1	4	248	0.00	30.199 
08:00	17.0	17.0	17.0	87	13.8	2	4	225	0.00	30.205 
08:05	17.0	17.0	17.0	87	13.8	2	4	248	0.00	30.205 
08:10	17.0	17.0	17.0	87	13.8	2	5	270	0.00	30.205 
08:15	17.2	17.2	17.2	87	14.0	2	4	270	0.00	30.206 
08:20	17.2	17.2	17.2	87	14.0	2	4	248	0.00	30.206 
08:25	17.2	17.2	17.2	88	14.3	2	5	248	0.00	30.206 
08:30	17.3	17.3	17.3	88	14.4	2	6	248	0.00	30.208 
08:35	17.3	17.3	17.3	88	14.4	2	4	248	0.00	30.208 
08:40	17.3	17.3	17.3	88	14.4	1	4	248	0.00	30.208 
08:45	17.5	17.5	17.5	88	14.6	1	5	248	0.00	30.207 
08:50	17.5	17.5	17.5	88	14.6	1	4	248	0.00	30.207 
08:55	17.7	17.7	17.7	88	14.8	2	5	270	0.00	30.207 
09:00	17.7	17.7	17.7	88	14.8	2	4	248	0.00	30.207 
09:05	17.8	17.8	17.8	88	14.9	2	5	248	0.00	30.207 
09:10	18.0	18.0	18.0	88	15.1	1	4	248	0.00	30.207 
09:15	18.1	18.1	18.1	88	15.2	2	5	248	0.00	30.206 
09:20	18.1	18.1	18.1	88	15.2	2	4	248	0.00	30.206 
09:25	18.3	18.3	18.3	88	15.4	2	7	248	0.00	30.206 
09:30	18.4	18.4	18.4	88	15.5	1	3	248	0.00	30.208 
09:35	18.6	18.6	18.6	88	15.6	2	4	270	0.00	30.208 
09:40	18.6	18.6	18.6	88	15.6	2	4	248	0.00	30.208 
09:45	18.8	18.8	18.8	87	15.6	2	6	248	0.00	30.210 
09:50	18.9	18.9	18.9	87	15.7	2	7	248	0.00	30.210 
09:55	19.1	19.1	19.1	87	15.9	2	5	248	0.00	30.210 
10:00	19.2	19.2	19.2	87	16.0	2	5	248	0.00	30.218 
10:05	19.2	19.2	19.2	86	15.7	3	7	270	0.00	30.218 
10:10	19.4	19.4	19.4	86	15.9	2	6	225	0.00	30.218 
10:15	19.5	19.5	19.5	86	16.0	2	6	292	0.00	30.219 
10:20	19.7	19.7	19.7	85	15.9	3	5	270	0.00	30.219 
10:25	19.9	19.9	19.9	85	16.1	2	7	270	0.00	30.219 
10:30	20.0	20.0	20.0	85	16.2	3	5	248	0.00	30.225 
10:35	20.2	20.2	20.2	84	16.2	3	5	270	0.00	30.225 
10:40	20.0	20.0	20.0	84	16.0	3	10	270	0.00	30.225 
10:45	20.0	20.0	20.0	84	16.0	3	6	270	0.00	30.225 
10:50	20.2	20.2	20.2	84	16.2	2	4	270	0.00	30.225 
10:55	20.3	20.3	20.3	83	16.0	2	5	248	0.00	30.225 
11:00	20.3	20.3	20.3	83	16.0	2	5	225	0.00	30.220 
11:05	20.5	20.5	20.5	83	16.2	2	5	248	0.00	30.220 
11:10	20.6	20.6	20.6	83	16.3	2	4	248	0.00	30.220 
11:15	20.5	20.5	20.5	82	15.9	3	10	248	0.00	30.219 
11:20	20.2	20.2	20.2	82	15.6	3	7	270	0.00	30.219 
11:25	20.2	20.2	20.2	82	15.6	3	9	270	0.00	30.219 
11:30	20.2	20.2	20.2	83	15.9	1	4	248	0.00	30.220 
11:35	20.2	20.2	20.2	82	15.6	3	6	270	0.00	30.220 
11:40	20.0	20.0	20.0	82	15.4	2	5	248	0.00	30.220 
11:45	20.0	20.0	20.0	82	15.4	2	4	248	0.00	30.216 
11:50	20.0	20.0	20.0	82	15.4	2	6	248	0.00	30.216 
11:55	20.0	20.0	20.0	82	15.4	2	5	270	0.00	30.216 
12:00	20.2	20.2	20.2	82	15.6	2	3	248	0.00	30.210 
12:05	20.2	20.2	20.2	82	15.6	2	7	248	0.00	30.210 
12:10	20.2	20.2	20.2	82	15.6	2	4	248	0.00	30.210 
12:15	20.3	20.3	20.3	82	15.7	2	4	248	0.00	30.204 
12:20	20.5	20.5	20.5	82	15.9	2	5	270	0.00	30.204 
12:25	20.5	20.5	20.5	82	15.9	2	5	248	0.00	30.204 
12:30	20.5	20.5	20.5	82	15.9	1	4	248	0.00	30.192 
12:35	20.5	20.5	20.5	81	15.6	2	6	248	0.00	30.192 
12:40	20.6	20.6	20.6	81	15.7	2	5	225	0.00	30.192 
12:45	20.8	20.8	20.8	81	15.9	2	5	248	0.00	30.191 
12:50	21.1	21.1	21.1	81	16.2	2	5	248	0.00	30.191 
12:55	21.3	21.3	21.3	80	16.1	2	3	248	0.00	30.191 
13:00	21.4	21.4	21.4	80	16.2	1	4	248	0.00	30.187 
13:05	21.6	21.6	21.6	80	16.4	2	6	270	0.00	30.187 
13:10	21.8	21.8	21.8	79	16.3	2	3	248	0.00	30.187 
13:15	21.9	21.9	21.9	79	16.4	2	5	248	0.00	30.182 
13:20	21.9	21.9	21.9	78	16.1	2	4	270	0.00	30.182 
13:25	22.1	22.1	22.1	78	16.3	2	5	270	0.00	30.182 
13:30	22.2	22.2	22.2	77	16.1	3	6	248	0.00	30.174 
13:35	22.4	22.4	22.4	77	16.3	2	5	248	0.00	30.174 
13:40	22.4	22.4	22.4	76	16.0	2	5	270	0.00	30.174 
13:45	22.5	22.5	22.5	76	16.1	2	8	270	0.00	30.173 
13:50	22.5	22.5	22.5	75	15.8	3	7	248	0.00	30.173 
13:55	22.5	22.5	22.5	75	15.8	2	5	270	0.00	30.173 
14:00	22.5	22.5	22.5	74	15.5	2	7	270	0.00	30.173 
14:05	22.4	22.4	22.4	74	15.4	2	5	270	0.00	30.173 
14:10	22.5	22.5	22.5	74	15.5	2	5	270	0.00	30.173 
14:15	22.5	22.5	22.5	74	15.5	3	5	248	0.00	30.174 
14:20	22.5	22.5	22.5	74	15.5	2	6	270	0.00	30.174 
14:25	22.7	22.7	22.7	73	15.4	2	4	248	0.00	30.174 
14:30	22.4	22.4	22.4	72	14.8	3	6	270	0.00	30.173 
14:35	22.7	22.7	22.7	73	15.4	3	5	270	0.00	30.173 
14:40	22.7	22.7	22.7	72	15.1	3	10	248	0.00	30.173 
14:45	22.5	22.5	22.5	71	14.5	3	7	248	0.00	30.172 
14:50	22.5	22.5	22.5	71	14.5	3	9	248	0.00	30.172 
14:55	22.5	22.5	22.5	71	14.5	2	5	270	0.00	30.172 
15:00	22.7	22.7	22.7	71	14.7	2	5	270	0.00	30.175 
15:05	22.7	22.7	22.7	71	14.7	3	7	270	0.00	30.175 
15:10	22.7	22.7	22.7	70	14.4	2	7	248	0.00	30.175 
15:15	22.7	22.7	22.7	70	14.4	3	8	270	0.00	30.180 
15:20	22.5	22.5	22.5	70	14.2	3	5	270	0.00	30.180 
15:25	22.5	22.5	22.5	70	14.2	2	6	270	0.00	30.180 
15:30	22.7	22.7	22.7	70	14.4	2	5	270	0.00	30.179 
15:35	22.9	22.9	22.9	71	14.9	2	5	248	0.00	30.179 
15:40	22.9	22.9	22.9	70	14.6	2	4	270	0.00	30.179 
15:45	22.9	22.9	22.9	70	14.6	2	5	270	0.00	30.183 
15:50	22.9	22.9	22.9	70	14.6	2	5	270	0.00	30.183 
15:55	22.9	22.9	22.9	70	14.6	2	4	270	0.00	30.183 
16:00	22.7	22.7	22.7	70	14.4	2	5	270	0.00	30.185 
16:05	22.7	22.7	22.7	70	14.4	2	6	270	0.00	30.185 
16:10	22.7	22.7	22.7	71	14.7	2	6	248	0.00	30.185 
16:15	22.9	22.9	22.9	71	14.9	1	3	270	0.00	30.190 
16:20	22.9	22.9	22.9	71	14.9	1	4	248	0.00	30.190 
16:25	23.0	23.0	23.0	71	15.0	2	3	248	0.00	30.190 
16:30	22.9	22.9	22.9	70	14.6	3	5	248	0.00	30.190 
16:35	22.9	22.9	22.9	70	14.6	2	3	270	0.00	30.190 
16:40	22.9	22.9	22.9	71	14.9	1	5	270	0.00	30.190 
16:45	22.9	22.9	22.9	70	14.6	2	4	248	0.00	30.179 
16:50	22.7	22.7	22.7	70	14.4	2	5	270	0.00	30.179 
16:55	22.7	22.7	22.7	70	14.4	1	3	270	0.00	30.179 
17:00	22.7	22.7	22.7	70	14.4	1	4	292	0.00	30.186 
17:05	22.5	22.5	22.5	71	14.5	2	5	248	0.00	30.186 
17:10	22.4	22.4	22.4	71	14.4	2	7	270	0.00	30.186 
17:15	22.4	22.4	22.4	72	14.8	1	4	248	0.00	30.186 
17:20	22.2	22.2	22.2	72	14.6	2	6	248	0.00	30.186 
17:25	21.9	21.9	21.9	72	14.3	2	6	248	0.00	30.186 
17:30	21.8	21.8	21.8	72	14.2	2	7	248	0.00	30.184 
17:35	21.6	21.6	21.6	72	14.0	2	5	248	0.00	30.184 
17:40	21.4	21.4	21.4	72	13.8	2	4	270	0.00	30.184 
17:45	21.3	21.3	21.3	72	13.7	2	4	248	0.00	30.190 
17:50	21.3	21.3	21.3	72	13.7	2	3	248	0.00	30.190 
17:55	21.1	21.1	21.1	73	13.8	2	4	248	0.00	30.190 
18:00	21.0	21.0	21.0	73	13.7	2	6	248	0.00	30.192 
18:05	20.8	20.8	20.8	72	13.2	2	7	248	0.00	30.192 
18:10	20.8	20.8	20.8	72	13.2	1	3	248	0.00	30.192 
18:15	20.6	20.6	20.6	72	13.0	2	4	248	0.00	30.193 
18:20	20.6	20.6	20.6	72	13.0	2	6	248	0.00	30.193 
18:25	20.5	20.5	20.5	72	12.9	1	3	292	0.00	30.193 
18:30	20.5	20.5	20.5	72	12.9	1	4	248	0.00	30.203 
18:35	20.5	20.5	20.5	73	13.2	1	3	270	0.00	30.203 
18:40	20.5	20.5	20.5	72	12.9	3	8	270	0.00	30.203 
18:45	20.3	20.3	20.3	72	12.7	2	4	270	0.00	30.208 
18:50	20.3	20.3	20.3	72	12.7	2	6	248	0.00	30.208 
18:55	20.3	20.3	20.3	73	13.1	2	4	248	0.00	30.208 
19:00	20.3	20.3	20.3	73	13.1	2	6	270	0.00	30.208 
19:05	20.2	20.2	20.2	73	13.0	1	7	270	0.00	30.208 
19:10	20.2	20.2	20.2	73	13.0	1	3	248	0.00	30.208 
19:15	20.2	20.2	20.2	73	13.0	2	6	248	0.00	30.212 
19:20	20.0	20.0	20.0	73	12.8	2	5	248	0.00	30.212 
19:25	19.9	19.9	19.9	73	12.7	2	4	248	0.00	30.212 
19:30	19.9	19.9	19.9	73	12.7	2	6	248	0.00	30.210 
19:35	19.9	19.9	19.9	73	12.7	1	3	248	0.00	30.210 
19:40	19.9	19.9	19.9	73	12.7	1	4	248	0.00	30.210 
19:45	19.9	19.9	19.9	74	13.0	3	7	248	0.00	30.211 
19:50	19.7	19.7	19.7	73	12.5	3	7	248	0.00	30.211 
19:55	19.5	19.5	19.5	73	12.3	2	6	270	0.00	30.211 
20:00	19.4	19.4	19.4	73	12.2	1	5	248	0.00	30.213 
20:05	19.4	19.4	19.4	73	12.2	2	5	225	0.00	30.213 
20:10	19.4	19.4	19.4	74	12.5	2	6	270	0.00	30.213 
20:15	19.4	19.4	19.4	74	12.5	1	5	248	0.00	30.214 
20:20	19.2	19.2	19.2	74	12.3	1	4	270	0.00	30.214 
20:25	19.2	19.2	19.2	74	12.3	1	5	248	0.00	30.214 
20:30	19.2	19.2	19.2	74	12.3	2	6	248	0.00	30.213 
20:35	19.2	19.2	19.2	74	12.3	1	6	248	0.00	30.213 
20:40	19.2	19.2	19.2	74	12.3	1	4	248	0.00	30.213 
20:45	19.1	19.1	19.1	74	12.2	2	6	248	0.00	30.211 
20:50	19.1	19.1	19.1	74	12.2	2	6	248	0.00	30.211 
20:55	19.1	19.1	19.1	74	12.2	1	4	248	0.00	30.211 
21:00	19.1	19.1	19.1	75	12.5	1	4	225	0.00	30.209 
21:05	19.2	19.2	19.2	75	12.6	2	5	225	0.00	30.209 
21:10	19.2	19.2	19.2	75	12.6	2	6	248	0.00	30.209 
21:15	19.2	19.2	19.2	75	12.6	1	3	270	0.00	30.209 
21:20	19.1	19.1	19.1	75	12.5	2	5	248	0.00	30.209 
21:25	19.1	19.1	19.1	75	12.5	1	6	248	0.00	30.209 
21:30	19.1	19.1	19.1	75	12.5	1	4	248	0.00	30.209 
21:35	19.1	19.1	19.1	75	12.5	1	4	248	0.00	30.209 
21:40	19.1	19.1	19.1	75	12.5	2	6	248	0.00	30.209 
21:45	19.1	19.1	19.1	75	12.5	2	5	248	0.00	30.214 
21:50	19.2	19.2	19.2	75	12.6	2	4	248	0.00	30.214 
21:55	19.2	19.2	19.2	75	12.6	1	3	248	0.00	30.214 
22:00	19.2	19.2	19.2	75	12.6	1	3	248	0.00	30.214 
22:05	19.2	19.2	19.2	75	12.6	2	5	248	0.00	30.214 
22:10	19.2	19.2	19.2	75	12.6	1	3	248	0.00	30.214 
22:15	19.4	19.4	19.4	76	13.1	1	5	248	0.00	30.207 
22:20	19.4	19.4	19.4	76	13.1	1	4	248	0.00	30.207 
22:25	19.4	19.4	19.4	76	13.1	3	5	248	0.00	30.207 
22:30	19.4	19.4	19.4	76	13.1	2	5	248	0.00	30.206 
22:35	19.4	19.4	19.4	76	13.1	1	4	248	0.00	30.206 
22:40	19.4	19.4	19.4	76	13.1	1	5	248	0.00	30.206 
22:45	19.2	19.2	19.2	75	12.6	1	4	248	0.00	30.206 
22:50	19.1	19.1	19.1	75	12.5	2	6	248	0.00	30.206 
22:55	19.1	19.1	19.1	75	12.5	2	7	248	0.00	30.206 
23:00	18.9	18.9	18.9	75	12.3	2	4	248	0.00	30.202 
23:05	18.9	18.9	18.9	75	12.3	1	3	248	0.00	30.202 
23:10	18.9	18.9	18.9	76	12.6	1	3	248	0.00	30.202 
23:15	19.1	19.1	19.1	76	12.8	1	3	248	0.00	30.201 
23:20	19.1	19.1	19.1	76	12.8	1	2	248	0.00	30.201 
23:25	19.1	19.1	19.1	76	12.8	1	3	225	0.00	30.201 
23:30	19.1	19.1	19.1	75	12.5	3	7	248	0.00	30.196 
23:35	18.9	18.9	18.9	75	12.3	2	5	248	0.00	30.196 
23:40	18.9	18.9	18.9	75	12.3	1	2	248	0.00	30.196 
23:45	18.9	18.9	18.9	75	12.3	1	3	248	0.00	30.192 
23:50	18.8	18.8	18.8	75	12.2	1	3	248	0.00	30.192 
23:55	18.8	18.8	18.8	75	12.2	0	2	248	0.00	30.192 

CoCoRaHS
IN-AL-39
A2 Web Hosting
Creative Commons License
GoDaddy
search engine by freefind advanced

loaded 2018-11-20 06:56:21 • last modified 2010-11-18 10:43:29
Privacy PolicyDisclaimer
• wx.awcolley.com is powered by PmWiki v.2002016 •
• all content (unless otherwise noted) © 2018 A W Colley